Time,TemperatureF,DewpointF,PressureIn,WindDirection,WindDirectionDegrees,WindSpeedMPH,WindSpeedGustMPH,Humidity,HourlyPrecipIn,Conditions,Clouds,dailyrainin,SoftwareType,DateUTC
2013-08-05 00:14:00,60.6,58.0,29.89,WNW,303,1.0,1.0,90,0.00,,,0.00,weatherlink.com 1.10,2013-08-05 04:14:00,
2013-08-05 00:28:00,61.1,59.0,29.89,WNW,300,0.0,3.0,91,0.00,,,0.00,weatherlink.com 1.10,2013-08-05 04:28:00,
2013-08-05 00:44:00,60.5,58.0,29.89,WNW,300,0.0,1.0,91,0.00,,,0.00,weatherlink.com 1.10,2013-08-05 04:44:00,
2013-08-05 00:59:00,61.2,59.0,29.89,NW,314,2.0,3.0,93,0.00,,,0.00,weatherlink.com 1.10,2013-08-05 04:59:00,
2013-08-05 01:14:00,63.8,60.0,29.89,NW,324,1.0,7.0,87,0.00,,,0.00,weatherlink.com 1.10,2013-08-05 05:14:00,
2013-08-05 01:29:00,64.8,60.0,29.89,North,360,3.0,8.0,83,0.00,,,0.00,weatherlink.com 1.10,2013-08-05 05:29:00,
2013-08-05 01:44:00,65.2,59.0,29.89,NW,309,2.0,6.0,80,0.00,,,0.00,weatherlink.com 1.10,2013-08-05 05:44:00,
2013-08-05 01:59:00,64.9,59.0,29.90,NW,312,3.0,7.0,80,0.00,,,0.00,weatherlink.com 1.10,2013-08-05 05:59:00,
2013-08-05 02:14:00,64.3,58.0,29.90,NW,319,2.0,6.0,80,0.00,,,0.00,weatherlink.com 1.10,2013-08-05 06:14:00,
2013-08-05 02:29:00,64.3,57.0,29.90,North,2,2.0,8.0,77,0.00,,,0.00,weatherlink.com 1.10,2013-08-05 06:29:00,
2013-08-05 02:44:00,64.3,56.0,29.90,NW,308,2.0,7.0,75,0.00,,,0.00,weatherlink.com 1.10,2013-08-05 06:44:00,
2013-08-05 02:59:00,64.0,56.0,29.90,WNW,297,2.0,6.0,75,0.00,,,0.00,weatherlink.com 1.10,2013-08-05 06:59:00,
2013-08-05 03:14:00,63.9,56.0,29.91,North,352,1.0,7.0,76,0.00,,,0.00,weatherlink.com 1.10,2013-08-05 07:14:00,
2013-08-05 03:29:00,63.6,56.0,29.91,NW,322,2.0,8.0,76,0.00,,,0.00,weatherlink.com 1.10,2013-08-05 07:29:00,
2013-08-05 03:44:00,63.6,56.0,29.91,WNW,302,2.0,8.0,76,0.00,,,0.00,weatherlink.com 1.10,2013-08-05 07:44:00,
2013-08-05 03:59:00,63.3,56.0,29.91,WNW,301,1.0,6.0,78,0.00,,,0.00,weatherlink.com 1.10,2013-08-05 07:59:00,
2013-08-05 04:14:00,63.2,56.0,29.91,NW,321,4.0,7.0,77,0.00,,,0.00,weatherlink.com 1.10,2013-08-05 08:14:00,
2013-08-05 04:29:00,63.5,55.0,29.92,North,1,1.0,9.0,75,0.00,,,0.00,weatherlink.com 1.10,2013-08-05 08:29:00,
2013-08-05 04:44:00,63.5,55.0,29.93,NNW,334,5.0,10.0,73,0.00,,,0.00,weatherlink.com 1.10,2013-08-05 08:44:00,
2013-08-05 04:59:00,63.5,54.0,29.93,NW,319,5.0,12.0,72,0.00,,,0.00,weatherlink.com 1.10,2013-08-05 08:59:00,
2013-08-05 05:14:00,63.4,55.0,29.94,West,273,3.0,10.0,73,0.00,,,0.00,weatherlink.com 1.10,2013-08-05 09:14:00,
2013-08-05 05:44:00,63.3,55.0,29.95,North,359,3.0,10.0,74,0.00,,,0.00,weatherlink.com 1.10,2013-08-05 09:44:00,
2013-08-05 06:14:00,63.0,55.0,29.96,NNW,331,1.0,9.0,74,0.00,,,0.00,weatherlink.com 1.10,2013-08-05 10:14:00,
2013-08-05 06:29:00,63.1,55.0,29.96,West,278,2.0,7.0,75,0.00,,,0.00,weatherlink.com 1.10,2013-08-05 10:29:00,
2013-08-05 06:44:00,63.3,55.0,29.97,West,269,3.0,9.0,75,0.00,,,0.00,weatherlink.com 1.10,2013-08-05 10:44:00,
2013-08-05 06:59:00,63.8,56.0,29.97,WNW,288,4.0,10.0,75,0.00,,,0.00,weatherlink.com 1.10,2013-08-05 10:59:00,
2013-08-05 07:14:00,64.4,56.0,29.97,WNW,297,4.0,10.0,73,0.00,,,0.00,weatherlink.com 1.10,2013-08-05 11:14:00,
2013-08-05 07:29:00,64.9,56.0,29.97,WNW,290,6.0,9.0,73,0.00,,,0.00,weatherlink.com 1.10,2013-08-05 11:29:00,
2013-08-05 07:44:00,65.5,56.0,29.97,North,349,5.0,10.0,72,0.00,,,0.00,weatherlink.com 1.10,2013-08-05 11:44:00,
2013-08-05 07:59:00,66.0,56.0,29.98,NNW,344,3.0,9.0,70,0.00,,,0.00,weatherlink.com 1.10,2013-08-05 11:59:00,
2013-08-05 08:29:00,66.5,56.0,29.98,WNW,290,2.0,10.0,70,0.00,,,0.00,weatherlink.com 1.10,2013-08-05 12:29:00,
2013-08-05 09:15:00,67.3,57.0,29.98,NNW,332,4.0,9.0,69,0.00,,,0.00,weatherlink.com 1.10,2013-08-05 13:15:00,
2013-08-05 09:30:00,67.3,57.0,29.98,WNW,296,2.0,12.0,69,0.00,,,0.00,weatherlink.com 1.10,2013-08-05 13:30:00,
2013-08-05 09:44:00,67.7,57.0,29.98,North,1,5.0,10.0,68,0.00,,,0.00,weatherlink.com 1.10,2013-08-05 13:44:00,
2013-08-05 09:59:00,68.1,57.0,29.98,NNW,335,6.0,11.0,67,0.00,,,0.00,weatherlink.com 1.10,2013-08-05 13:59:00,
2013-08-05 10:14:00,68.5,54.0,29.98,NW,316,4.0,14.0,60,0.00,,,0.00,weatherlink.com 1.10,2013-08-05 14:14:00,
2013-08-05 10:30:00,69.1,56.0,29.98,NNW,336,6.0,11.0,64,0.00,,,0.00,weatherlink.com 1.10,2013-08-05 14:30:00,
2013-08-05 10:45:00,69.3,54.0,29.99,NNW,337,5.0,9.0,59,0.00,,,0.00,weatherlink.com 1.10,2013-08-05 14:45:00,
2013-08-05 11:00:00,69.4,55.0,29.98,NNE,30,5.0,10.0,61,0.00,,,0.00,weatherlink.com 1.10,2013-08-05 15:00:00,
2013-08-05 11:15:00,69.3,56.0,29.98,NW,316,3.0,10.0,63,0.00,,,0.00,weatherlink.com 1.10,2013-08-05 15:15:00,
2013-08-05 11:44:00,70.1,57.0,29.98,SW,233,9.0,13.0,63,0.00,,,0.00,weatherlink.com 1.10,2013-08-05 15:44:00,
2013-08-05 12:00:00,70.0,57.0,29.98,WSW,258,5.0,11.0,63,0.00,,,0.00,weatherlink.com 1.10,2013-08-05 16:00:00,
2013-08-05 12:30:00,70.3,57.0,29.98,West,274,6.0,12.0,63,0.00,,,0.00,weatherlink.com 1.10,2013-08-05 16:30:00,
2013-08-05 12:45:00,70.8,56.0,29.98,North,359,3.0,14.0,60,0.00,,,0.00,weatherlink.com 1.10,2013-08-05 16:45:00,
2013-08-05 13:00:00,70.8,58.0,29.97,West,263,8.0,13.0,65,0.00,,,0.00,weatherlink.com 1.10,2013-08-05 17:00:00,
2013-08-05 13:15:00,71.0,55.0,29.97,WNW,285,8.0,14.0,58,0.00,,,0.00,weatherlink.com 1.10,2013-08-05 17:15:00,
2013-08-05 13:45:00,71.5,53.0,29.98,ESE,106,1.0,13.0,53,0.00,,,0.00,weatherlink.com 1.10,2013-08-05 17:45:00,
2013-08-05 14:00:00,72.1,51.0,29.98,West,266,6.0,11.0,47,0.00,,,0.00,weatherlink.com 1.10,2013-08-05 18:00:00,
2013-08-05 14:30:00,72.6,52.0,29.97,WNW,285,1.0,9.0,48,0.00,,,0.00,weatherlink.com 1.10,2013-08-05 18:30:00,
2013-08-05 14:45:00,72.6,51.0,29.97,West,271,3.0,12.0,46,0.00,,,0.00,weatherlink.com 1.10,2013-08-05 18:45:00,
2013-08-05 15:15:00,73.0,50.0,29.97,North,351,5.0,10.0,44,0.00,,,0.00,weatherlink.com 1.10,2013-08-05 19:15:00,
2013-08-05 17:01:00,74.2,53.0,29.98,West,276,0.0,6.0,47,0.00,,,0.00,weatherlink.com 1.10,2013-08-05 21:01:00,
2013-08-05 17:16:00,73.9,52.0,29.98,West,269,1.0,7.0,47,0.00,,,0.00,weatherlink.com 1.10,2013-08-05 21:16:00,
2013-08-05 18:01:00,73.1,56.0,29.99,SE,145,3.0,6.0,56,0.00,,,0.00,weatherlink.com 1.10,2013-08-05 22:01:00,
2013-08-05 18:16:00,72.6,57.0,29.99,South,180,0.0,6.0,58,0.00,,,0.00,weatherlink.com 1.10,2013-08-05 22:16:00,
2013-08-05 18:31:00,72.7,57.0,30.00,SE,145,0.0,3.0,59,0.00,,,0.00,weatherlink.com 1.10,2013-08-05 22:31:00,
2013-08-05 19:01:00,71.7,58.0,30.01,WNW,285,0.0,2.0,63,0.00,,,0.00,weatherlink.com 1.10,2013-08-05 23:01:00,
2013-08-05 19:16:00,70.8,58.0,30.01,WNW,285,0.0,1.0,64,0.00,,,0.00,weatherlink.com 1.10,2013-08-05 23:16:00,
2013-08-05 19:31:00,68.6,58.0,30.01,WNW,285,0.0,1.0,69,0.00,,,0.00,weatherlink.com 1.10,2013-08-05 23:31:00,
2013-08-05 19:46:00,66.0,58.0,30.02,WNW,285,0.0,0.0,76,0.00,,,0.00,weatherlink.com 1.10,2013-08-05 23:46:00,
2013-08-05 20:01:00,63.6,57.0,30.02,WNW,285,0.0,1.0,80,0.00,,,0.00,weatherlink.com 1.10,2013-08-06 00:01:00,
2013-08-05 20:17:00,61.8,57.0,30.02,WNW,285,0.0,2.0,83,0.00,,,0.00,weatherlink.com 1.10,2013-08-06 00:17:00,
2013-08-05 20:32:00,61.1,57.0,30.03,West,272,0.0,1.0,85,0.00,,,0.00,weatherlink.com 1.10,2013-08-06 00:32:00,
2013-08-05 20:47:00,61.4,57.0,30.04,West,263,0.0,3.0,85,0.00,,,0.00,weatherlink.com 1.10,2013-08-06 00:47:00,
2013-08-05 21:17:00,61.3,58.0,30.04,WNW,282,0.0,2.0,88,0.00,,,0.00,weatherlink.com 1.10,2013-08-06 01:17:00,
2013-08-05 21:32:00,61.2,58.0,30.05,WNW,282,0.0,2.0,88,0.00,,,0.00,weatherlink.com 1.10,2013-08-06 01:32:00,
2013-08-05 22:02:00,59.9,57.0,30.05,WNW,282,0.0,2.0,90,0.00,,,0.00,weatherlink.com 1.10,2013-08-06 02:02:00,
2013-08-05 22:17:00,60.2,58.0,30.05,WNW,282,0.0,2.0,92,0.00,,,0.00,weatherlink.com 1.10,2013-08-06 02:17:00,
2013-08-05 22:32:00,59.7,57.0,30.05,WNW,282,0.0,0.0,91,0.00,,,0.00,weatherlink.com 1.10,2013-08-06 02:32:00,
2013-08-05 22:47:00,58.8,57.0,30.05,WNW,282,0.0,0.0,92,0.00,,,0.00,weatherlink.com 1.10,2013-08-06 02:47:00,
2013-08-05 23:02:00,58.1,56.0,30.05,WNW,282,0.0,1.0,92,0.00,,,0.00,weatherlink.com 1.10,2013-08-06 03:02:00,
2013-08-05 23:17:00,57.7,56.0,30.05,WNW,282,0.0,1.0,93,0.00,,,0.00,weatherlink.com 1.10,2013-08-06 03:17:00,
2013-08-05 23:32:00,57.5,56.0,30.05,WNW,282,0.0,1.0,94,0.00,,,0.00,weatherlink.com 1.10,2013-08-06 03:32:00,